createdAt,value
2018-10-07T00:01:56.492Z,99748.94
2018-10-07T00:04:02.580Z,99756.00
2018-10-07T00:06:08.740Z,99752.14
2018-10-07T00:08:14.868Z,99759.96
2018-10-07T00:10:21.528Z,99762.98
2018-10-07T00:12:27.703Z,99771.71
2018-10-07T00:14:33.796Z,99770.98
2018-10-07T00:16:39.897Z,99772.48
2018-10-07T00:18:46.033Z,99774.48
2018-10-07T00:20:52.146Z,99772.13
2018-10-07T00:22:58.258Z,99772.21
2018-10-07T00:25:04.393Z,99774.47
2018-10-07T00:27:10.584Z,99773.45
2018-10-07T00:29:16.851Z,99781.20
2018-10-07T00:31:22.983Z,99787.03
2018-10-07T00:33:29.150Z,99784.52
2018-10-07T00:35:35.264Z,99782.34
2018-10-07T00:37:41.379Z,99782.73
2018-10-07T00:39:47.520Z,99788.56
2018-10-07T00:41:53.668Z,99794.05
2018-10-07T00:43:59.736Z,99793.75
2018-10-07T00:46:05.869Z,99795.55
2018-10-07T00:48:12.053Z,99790.86
2018-10-07T00:50:18.156Z,99796.98
2018-10-07T00:52:24.304Z,99795.28
2018-10-07T00:54:30.406Z,99795.66
2018-10-07T00:56:36.497Z,99796.39
2018-10-07T00:58:42.605Z,99795.92
2018-10-07T01:00:48.714Z,99802.43
2018-10-07T01:02:55.046Z,99797.03
2018-10-07T01:05:01.132Z,99798.64
2018-10-07T01:07:07.224Z,99794.69
2018-10-07T01:09:13.827Z,99791.76
2018-10-07T01:11:19.920Z,99792.91
2018-10-07T01:13:26.911Z,99791.50
2018-10-07T01:15:33.024Z,99793.70
2018-10-07T01:17:39.114Z,99796.13
2018-10-07T01:19:45.212Z,99799.91
2018-10-07T01:21:51.332Z,99802.37
2018-10-07T01:23:57.497Z,99803.69
2018-10-07T01:26:03.842Z,99804.25
2018-10-07T01:28:09.920Z,99810.95
2018-10-07T01:30:17.571Z,99812.36
2018-10-07T01:32:23.705Z,99808.11
2018-10-07T01:34:29.816Z,99812.91
2018-10-07T01:36:35.878Z,99804.92
2018-10-07T01:38:41.952Z,99805.95
2018-10-07T01:40:48.095Z,99811.52
2018-10-07T01:42:55.091Z,99812.16
2018-10-07T01:45:01.201Z,99816.29
2018-10-07T01:47:07.419Z,99813.56
2018-10-07T01:49:13.471Z,99820.16
2018-10-07T01:51:19.683Z,99808.59
2018-10-07T01:53:26.055Z,99814.41
2018-10-07T01:55:32.176Z,99818.37
2018-10-07T01:57:38.299Z,99814.23
2018-10-07T01:59:44.382Z,99816.78
2018-10-07T02:01:50.526Z,99819.80
2018-10-07T02:03:56.664Z,99811.88
2018-10-07T02:06:02.780Z,99821.50
2018-10-07T02:08:08.926Z,99818.00
2018-10-07T02:10:15.082Z,99821.86
2018-10-07T02:12:21.176Z,99824.77
2018-10-07T02:14:27.245Z,99823.73
2018-10-07T02:16:33.997Z,99826.37
2018-10-07T02:18:40.060Z,99835.59
2018-10-07T02:20:46.236Z,99837.07
2018-10-07T02:22:52.308Z,99832.30
2018-10-07T02:24:58.449Z,99836.14
2018-10-07T02:27:04.545Z,99837.30
2018-10-07T02:29:10.661Z,99838.77
2018-10-07T02:31:16.720Z,99840.84
2018-10-07T02:33:22.820Z,99843.80
2018-10-07T02:35:29.291Z,99839.86
2018-10-07T02:37:35.404Z,99841.25
2018-10-07T02:39:41.483Z,99844.34
2018-10-07T02:41:47.551Z,99842.56
2018-10-07T02:43:53.646Z,99848.77
2018-10-07T02:45:59.742Z,99859.66
2018-10-07T02:48:06.067Z,99852.61
2018-10-07T02:50:20.021Z,99855.13
2018-10-07T02:52:31.149Z,99855.47
2018-10-07T02:54:37.341Z,99861.47
2018-10-07T02:56:43.765Z,99869.53
2018-10-07T02:58:50.013Z,99861.74
2018-10-07T03:00:56.132Z,99863.80
2018-10-07T03:03:02.328Z,99867.48
2018-10-07T03:05:08.508Z,99870.87
2018-10-07T03:07:15.276Z,99874.83
2018-10-07T03:09:21.520Z,99867.40
2018-10-07T03:11:27.584Z,99871.54
2018-10-07T03:13:33.675Z,99875.25
2018-10-07T03:15:39.777Z,99881.25
2018-10-07T03:17:45.936Z,99885.46
2018-10-07T03:19:52.280Z,99883.22
2018-10-07T03:21:58.499Z,99880.78
2018-10-07T03:24:04.781Z,99885.24
2018-10-07T03:26:12.350Z,99887.99
2018-10-07T03:28:18.537Z,99885.09
2018-10-07T03:30:25.180Z,99880.41
2018-10-07T03:32:31.261Z,99883.19
2018-10-07T03:34:37.433Z,99885.16
2018-10-07T03:36:43.566Z,99883.38
2018-10-07T03:38:49.651Z,99891.66
2018-10-07T03:40:55.813Z,99887.72
2018-10-07T03:43:02.448Z,99890.70
2018-10-07T03:45:08.708Z,99889.11
2018-10-07T03:47:14.824Z,99891.55
2018-10-07T03:49:20.909Z,99891.78
2018-10-07T03:51:27.031Z,99891.19
2018-10-07T03:53:33.148Z,99891.06
2018-10-07T03:55:39.263Z,99887.12
2018-10-07T03:57:45.380Z,99883.95
2018-10-07T03:59:52.027Z,99893.08
2018-10-07T04:01:58.373Z,99895.71
2018-10-07T04:04:04.509Z,99899.08
2018-10-07T04:06:10.615Z,99891.19
2018-10-07T04:08:16.741Z,99896.45
2018-10-07T04:10:22.809Z,99895.71
2018-10-07T04:12:28.890Z,99891.77
2018-10-07T04:14:35.017Z,99900.40
2018-10-07T04:16:41.132Z,99904.45
2018-10-07T04:18:47.231Z,99904.41
2018-10-07T04:20:53.406Z,99912.95
2018-10-07T04:22:59.548Z,99914.34
2018-10-07T04:25:05.696Z,99912.64
2018-10-07T04:27:11.800Z,99917.30
2018-10-07T04:29:17.887Z,99919.59
2018-10-07T04:31:24.296Z,99928.39
2018-10-07T04:33:30.412Z,99921.54
2018-10-07T04:35:36.539Z,99929.44
2018-10-07T04:37:42.598Z,99926.27
2018-10-07T04:39:48.697Z,99926.81
2018-10-07T04:41:54.811Z,99931.21
2018-10-07T04:44:00.947Z,99930.15
2018-10-07T04:46:07.090Z,99932.00
2018-10-07T04:48:13.175Z,99936.05
2018-10-07T04:50:19.219Z,99940.34
2018-10-07T04:52:25.333Z,99944.22
2018-10-07T04:54:31.453Z,99940.27
2018-10-07T04:56:37.555Z,99941.52
2018-10-07T04:58:43.658Z,99939.34
2018-10-07T05:00:49.729Z,99947.30
2018-10-07T05:02:55.870Z,99953.20
2018-10-07T05:05:01.996Z,99949.57
2018-10-07T05:07:08.223Z,99950.73
2018-10-07T05:09:14.345Z,99959.30
2018-10-07T05:11:20.524Z,99960.94
2018-10-07T05:13:28.313Z,99962.86
2018-10-07T05:15:34.441Z,99966.17
2018-10-07T05:17:40.590Z,99973.30
2018-10-07T05:19:46.729Z,99980.02
2018-10-07T05:21:52.931Z,99980.58
2018-10-07T05:23:59.624Z,99992.54
2018-10-07T05:26:05.812Z,99997.12
2018-10-07T05:28:11.911Z,99995.97
2018-10-07T05:30:18.019Z,99992.10
2018-10-07T05:32:24.128Z,99991.08
2018-10-07T05:34:30.249Z,99994.42
2018-10-07T05:36:36.424Z,99995.27
2018-10-07T05:38:42.615Z,100001.28
2018-10-07T05:40:48.693Z,100006.14
2018-10-07T05:42:55.456Z,100015.97
2018-10-07T05:45:01.595Z,100020.09
2018-10-07T05:47:07.776Z,100018.91
2018-10-07T05:49:13.885Z,100017.20
2018-10-07T05:51:20.049Z,100014.58
2018-10-07T05:53:26.117Z,100012.34
2018-10-07T05:55:32.707Z,100011.88
2018-10-07T05:57:38.780Z,100016.44
2018-10-07T05:59:44.913Z,100016.59
2018-10-07T06:01:51.731Z,100018.38
2018-10-07T06:04:43.310Z,100017.05
2018-10-07T06:06:49.580Z,100017.62
2018-10-07T06:08:56.714Z,100025.66
2018-10-07T06:11:02.866Z,100031.06
2018-10-07T06:13:09.027Z,100036.44
2018-10-07T06:15:30.870Z,100037.14
2018-10-07T06:17:37.071Z,100038.22
2018-10-07T06:19:43.266Z,100034.48
2018-10-07T06:21:49.426Z,100046.17
2018-10-07T06:23:55.597Z,100047.78
2018-10-07T06:26:01.692Z,100052.41
2018-10-07T06:28:07.859Z,100061.39
2018-10-07T06:30:14.006Z,100059.86
2018-10-07T06:32:22.079Z,100064.34
2018-10-07T06:34:28.949Z,100069.60
2018-10-07T06:36:35.064Z,100069.85
2018-10-07T06:38:41.252Z,100070.45
2018-10-07T06:40:47.340Z,100080.56
2018-10-07T06:42:53.561Z,100079.21
2018-10-07T06:44:59.699Z,100078.89
2018-10-07T06:47:05.842Z,100076.86
2018-10-07T06:49:11.961Z,100078.11
2018-10-07T06:51:18.176Z,100089.88
2018-10-07T06:53:24.334Z,100086.14
2018-10-07T06:55:30.511Z,100098.20
2018-10-07T06:57:36.696Z,100099.66
2018-10-07T06:59:42.846Z,100100.64
2018-10-07T07:01:49.003Z,100103.41
2018-10-07T07:03:55.539Z,100110.59
2018-10-07T07:06:01.662Z,100111.58
2018-10-07T07:08:08.468Z,100112.46
2018-10-07T07:10:14.625Z,100117.81
2018-10-07T07:12:20.755Z,100113.81
2018-10-07T07:14:26.881Z,100119.13
2018-10-07T07:16:33.093Z,100123.98
2018-10-07T07:18:39.760Z,100122.80
2018-10-07T07:20:45.986Z,100129.86
2018-10-07T07:22:52.128Z,100128.52
2018-10-07T07:24:58.201Z,100129.45
2018-10-07T07:27:04.328Z,100131.20
2018-10-07T07:29:10.559Z,100131.78
2018-10-07T07:31:16.826Z,100132.64
2018-10-07T07:33:23.130Z,100134.00
2018-10-07T07:35:29.436Z,100126.20
2018-10-07T07:37:35.580Z,100125.84
2018-10-07T07:39:41.818Z,100136.78
2018-10-07T07:41:48.020Z,100140.33
2018-10-07T07:43:54.133Z,100136.02
2018-10-07T07:46:00.339Z,100142.98
2018-10-07T07:48:07.137Z,100143.86
2018-10-07T07:50:13.289Z,100153.48
2018-10-07T07:52:19.520Z,100148.13
2018-10-07T07:54:25.669Z,100152.16
2018-10-07T07:56:31.836Z,100153.88
2018-10-07T07:58:38.025Z,100159.06
2018-10-07T08:00:44.205Z,100162.48
2018-10-07T08:02:50.368Z,100171.06
2018-10-07T08:04:57.152Z,100179.27
2018-10-07T08:07:03.334Z,100185.12
2018-10-07T08:09:10.665Z,100189.17
2018-10-07T08:11:16.876Z,100201.62
2018-10-07T08:13:23.129Z,100201.41
2018-10-07T08:15:29.336Z,100199.11
2018-10-07T08:17:35.615Z,100205.98
2018-10-07T08:19:41.735Z,100211.64
2018-10-07T08:21:47.940Z,100217.73
2018-10-07T08:23:54.135Z,100222.55
2018-10-07T08:26:00.367Z,100230.94
2018-10-07T08:28:06.791Z,100240.56
2018-10-07T08:30:13.376Z,100248.49
2018-10-07T08:32:23.391Z,100251.94
2018-10-07T08:34:29.869Z,100252.77
2018-10-07T08:36:36.039Z,100250.06
2018-10-07T08:38:42.184Z,100248.47
2018-10-07T08:40:48.378Z,100264.61
2018-10-07T08:42:54.620Z,100262.34
2018-10-07T08:45:00.807Z,100252.50
2018-10-07T08:47:07.056Z,100251.13
2018-10-07T08:49:13.221Z,100250.80
2018-10-07T08:51:20.767Z,100243.67
2018-10-07T08:53:26.985Z,100254.49
2018-10-07T08:55:33.323Z,100247.36
2018-10-07T08:57:39.496Z,100251.64
2018-10-07T08:59:46.242Z,100242.70
2018-10-07T09:01:52.391Z,100253.73
2018-10-07T09:03:58.635Z,100258.70
2018-10-07T09:06:05.058Z,100256.71
2018-10-07T09:08:11.425Z,100251.66
2018-10-07T09:10:17.590Z,100251.94
2018-10-07T09:12:23.841Z,100247.73
2018-10-07T09:14:30.015Z,100232.94
2018-10-07T09:16:36.557Z,100235.47
2018-10-07T09:18:42.836Z,100235.94
2018-10-07T09:20:49.035Z,100238.72
2018-10-07T09:22:55.153Z,100244.60
2018-10-07T09:25:01.309Z,100247.01
2018-10-07T09:27:07.596Z,100249.86
2018-10-07T09:29:13.783Z,100252.27
2018-10-07T09:31:20.144Z,100251.28
2018-10-07T09:33:26.260Z,100249.38
2018-10-07T09:35:32.427Z,100255.44
2018-10-07T09:37:38.547Z,100262.92
2018-10-07T09:39:45.015Z,100260.61
2018-10-07T09:41:51.240Z,100260.61
2018-10-07T09:43:57.448Z,100268.38
2018-10-07T09:46:03.675Z,100260.66
2018-10-07T09:48:10.176Z,100258.77
2018-10-07T09:50:16.324Z,100245.55
2018-10-07T09:52:22.568Z,100250.14
2018-10-07T09:54:28.695Z,100245.97
2018-10-07T09:56:34.880Z,100250.47
2018-10-07T09:58:41.180Z,100254.49
2018-10-07T10:00:47.346Z,100257.66
2018-10-07T10:02:53.551Z,100255.87
2018-10-07T10:04:59.793Z,100264.48
2018-10-07T10:07:05.959Z,100262.34
2018-10-07T10:09:12.353Z,100270.45
2018-10-07T10:11:18.599Z,100266.98
2018-10-07T10:13:24.601Z,100266.67
2018-10-07T10:15:30.775Z,100268.98
2018-10-07T10:17:37.021Z,100266.47
2018-10-07T10:20:08.221Z,100276.41
2018-10-07T10:22:29.845Z,100269.05
2018-10-07T10:25:32.815Z,100281.03
2018-10-07T10:29:58.520Z,100280.80
2018-10-07T10:32:46.159Z,100269.09
2018-10-07T10:37:04.365Z,100269.94
2018-10-07T10:39:21.159Z,100271.27
2018-10-07T10:41:49.137Z,100277.08
2018-10-07T10:44:03.674Z,100263.56
2018-10-07T10:46:27.281Z,100268.80
2018-10-07T10:49:48.266Z,100276.32
2018-10-07T10:52:09.499Z,100279.85
2018-10-07T10:54:23.417Z,100276.84
2018-10-07T10:56:38.563Z,100281.58
2018-10-07T11:00:03.348Z,100279.69
2018-10-07T11:02:20.137Z,100283.32
2018-10-07T11:04:33.911Z,100288.55
2018-10-07T11:09:00.831Z,100294.52
2018-10-07T11:12:19.218Z,100302.03
2018-10-07T11:14:38.488Z,100297.32
2018-10-07T11:19:00.446Z,100304.47
2018-10-07T11:21:22.105Z,100300.00
2018-10-07T11:24:10.634Z,100296.50
2018-10-07T11:26:24.418Z,100293.75
2018-10-07T11:29:46.277Z,100286.62
2018-10-07T11:32:11.632Z,100288.78
2018-10-07T11:35:35.281Z,100286.64
2018-10-07T11:38:01.385Z,100293.27
2018-10-07T11:40:20.201Z,100293.90
2018-10-07T11:42:32.145Z,100297.53
2018-10-07T11:45:52.803Z,100290.39
2018-10-07T11:48:48.292Z,100300.30
2018-10-07T11:51:06.401Z,100291.14
2018-10-07T11:53:28.220Z,100289.33
2018-10-07T11:55:34.443Z,100282.67
2018-10-07T11:57:40.624Z,100281.45
2018-10-07T11:59:46.730Z,100281.92
2018-10-07T12:01:52.861Z,100288.09
2018-10-07T12:03:59.029Z,100279.37
2018-10-07T12:06:05.116Z,100282.75
2018-10-07T12:08:11.379Z,100281.05
2018-10-07T12:10:17.683Z,100288.30
2018-10-07T12:12:23.865Z,100285.41
2018-10-07T12:14:29.978Z,100284.29
2018-10-07T12:16:36.201Z,100292.05
2018-10-07T12:18:42.357Z,100293.97
2018-10-07T12:20:48.538Z,100295.77
2018-10-07T12:22:54.700Z,100303.39
2018-10-07T12:25:00.888Z,100304.85
2018-10-07T12:27:07.866Z,100306.77
2018-10-07T12:29:14.040Z,100312.72
2018-10-07T12:31:20.180Z,100311.63
2018-10-07T12:33:27.057Z,100307.00
2018-10-07T12:35:33.247Z,100311.85
2018-10-07T12:37:39.486Z,100311.13
2018-10-07T12:39:45.614Z,100313.41
2018-10-07T12:41:51.805Z,100308.67
2018-10-07T12:43:57.998Z,100309.61
2018-10-07T12:46:04.225Z,100317.23
2018-10-07T12:48:10.464Z,100308.84
2018-10-07T12:50:16.697Z,100307.63
2018-10-07T12:52:22.867Z,100309.67
2018-10-07T12:54:30.028Z,100307.73
2018-10-07T12:56:36.072Z,100302.03
2018-10-07T12:58:42.276Z,100306.77
2018-10-07T13:00:48.378Z,100306.28
2018-10-07T13:02:54.554Z,100310.12
2018-10-07T13:05:00.782Z,100304.80
2018-10-07T13:07:07.272Z,100305.16
2018-10-07T13:09:14.449Z,100312.67
2018-10-07T13:11:21.336Z,100312.92
2018-10-07T13:13:27.533Z,100315.07
2018-10-07T13:15:33.709Z,100317.25
2018-10-07T13:17:39.925Z,100313.62
2018-10-07T13:19:46.141Z,100313.13
2018-10-07T13:21:52.327Z,100313.86
2018-10-07T13:23:58.477Z,100313.71
2018-10-07T13:26:04.738Z,100315.05
2018-10-07T13:28:10.879Z,100316.38
2018-10-07T13:30:17.056Z,100319.29
2018-10-07T13:32:23.238Z,100327.02
2018-10-07T13:34:29.473Z,100326.54
2018-10-07T13:36:35.689Z,100322.14
2018-10-07T13:38:41.974Z,100318.39
2018-10-07T13:40:48.100Z,100319.81
2018-10-07T13:42:54.245Z,100321.87
2018-10-07T13:45:00.466Z,100317.63
2018-10-07T13:47:06.615Z,100318.48
2018-10-07T13:49:13.338Z,100316.66
2018-10-07T13:51:19.630Z,100317.02
2018-10-07T13:53:26.121Z,100311.69
2018-10-07T13:55:32.434Z,100317.72
2018-10-07T13:57:38.654Z,100314.20
2018-10-07T13:59:46.565Z,100319.41
2018-10-07T14:01:52.785Z,100318.93
2018-10-07T14:03:59.067Z,100313.11
2018-10-07T14:06:05.224Z,100315.78
2018-10-07T14:08:11.531Z,100318.45
2018-10-07T14:10:17.889Z,100312.63
2018-10-07T14:12:24.095Z,100313.47
2018-10-07T14:14:30.370Z,100301.09
2018-10-07T14:16:36.618Z,100304.98
2018-10-07T14:18:42.805Z,100300.49
2018-10-07T14:20:49.024Z,100310.16
2018-10-07T14:22:55.206Z,100312.71
2018-10-07T14:25:01.390Z,100317.77
2018-10-07T14:27:07.683Z,100322.87
2018-10-07T14:29:13.904Z,100322.38
2018-10-07T14:31:21.177Z,100319.07
2018-10-07T14:33:27.365Z,100321.13
2018-10-07T14:35:34.408Z,100317.49
2018-10-07T14:37:41.579Z,100316.85
2018-10-07T14:39:47.887Z,100326.07
2018-10-07T14:41:54.299Z,100325.46
2018-10-07T14:44:00.655Z,100323.16
2018-10-07T14:46:07.577Z,100329.19
2018-10-07T14:48:13.804Z,100327.37
2018-10-07T14:50:19.992Z,100324.21
2018-10-07T14:52:26.252Z,100336.95
2018-10-07T14:54:33.159Z,100337.44
2018-10-07T14:56:39.777Z,100335.13
2018-10-07T14:58:46.022Z,100334.53
2018-10-07T15:00:52.300Z,100335.25
2018-10-07T15:02:58.612Z,100340.23
2018-10-07T15:05:04.924Z,100341.69
2018-10-07T15:07:11.125Z,100346.33
2018-10-07T15:09:17.298Z,100352.28
2018-10-07T15:11:23.430Z,100353.41
2018-10-07T15:13:29.683Z,100356.89
2018-10-07T15:15:35.943Z,100349.04
2018-10-07T15:17:42.156Z,100366.52
2018-10-07T15:19:48.425Z,100358.78
2018-10-07T15:21:54.621Z,100363.30
2018-10-07T15:24:00.845Z,100361.23
2018-10-07T15:26:07.120Z,100366.97
2018-10-07T15:28:13.341Z,100366.88
2018-10-07T15:30:19.538Z,100375.48
2018-10-07T15:32:25.729Z,100374.88
2018-10-07T15:34:31.926Z,100376.45
2018-10-07T15:36:38.038Z,100375.02
2018-10-07T15:38:44.443Z,100378.44
2018-10-07T15:40:50.611Z,100379.05
2018-10-07T15:42:56.761Z,100390.34
2018-10-07T15:45:03.056Z,100381.25
2018-10-07T15:47:09.335Z,100377.88
2018-10-07T15:49:15.715Z,100386.12
2018-10-07T15:51:21.903Z,100378.87
2018-10-07T15:53:28.047Z,100381.77
2018-10-07T15:55:34.392Z,100380.48
2018-10-07T15:57:40.539Z,100384.35
2018-10-07T15:59:46.760Z,100387.66
2018-10-07T16:01:54.495Z,100390.70
2018-10-07T16:04:00.644Z,100396.89
2018-10-07T16:06:06.962Z,100394.45
2018-10-07T16:08:13.161Z,100393.98
2018-10-07T16:10:19.460Z,100397.14
2018-10-07T16:12:25.715Z,100405.15
2018-10-07T16:14:31.889Z,100404.27
2018-10-07T16:16:38.270Z,100403.94
2018-10-07T16:18:44.559Z,100400.91
2018-10-07T16:20:50.794Z,100397.28
2018-10-07T16:22:57.181Z,100398.62
2018-10-07T16:25:03.397Z,100400.91
2018-10-07T16:27:10.658Z,100409.64
2018-10-07T16:29:16.965Z,100412.41
2018-10-07T16:31:23.180Z,100412.77
2018-10-07T16:33:29.364Z,100414.84
2018-10-07T16:35:36.586Z,100421.72
2018-10-07T16:37:42.804Z,100426.33
2018-10-07T16:39:49.026Z,100426.08
2018-10-07T16:41:55.232Z,100428.02
2018-10-07T16:44:01.543Z,100432.34
2018-10-07T16:46:08.105Z,100431.38
2018-10-07T16:48:14.418Z,100432.66
2018-10-07T16:50:20.729Z,100435.30
2018-10-07T16:52:26.979Z,100445.59
2018-10-07T16:54:33.197Z,100443.87
2018-10-07T16:56:39.500Z,100445.56
2018-10-07T16:58:45.630Z,100447.95
2018-10-07T17:00:51.847Z,100446.87
2018-10-07T17:02:58.087Z,100453.39
2018-10-07T17:05:04.375Z,100454.55
2018-10-07T17:07:10.573Z,100460.59
2018-10-07T17:09:17.834Z,100469.78
2018-10-07T17:11:24.013Z,100475.06
2018-10-07T17:13:30.298Z,100475.03
2018-10-07T17:15:36.433Z,100480.80
2018-10-07T17:17:42.776Z,100476.30
2018-10-07T17:19:49.164Z,100493.31
2018-10-07T17:21:55.565Z,100486.80
2018-10-07T17:24:01.852Z,100490.88
2018-10-07T17:26:08.230Z,100489.61
2018-10-07T17:28:14.504Z,100493.45
2018-10-07T17:30:20.855Z,100494.51
2018-10-07T17:32:27.088Z,100495.69
2018-10-07T17:34:33.421Z,100503.52
2018-10-07T17:36:39.672Z,100507.70
2018-10-07T17:38:45.839Z,100513.62
2018-10-07T17:40:52.158Z,100512.63
2018-10-07T17:42:58.381Z,100522.12
2018-10-07T17:45:04.671Z,100523.77
2018-10-07T17:47:10.955Z,100530.64
2018-10-07T17:49:17.153Z,100542.25
2018-10-07T17:51:23.567Z,100549.44
2018-10-07T17:53:29.849Z,100551.03
2018-10-07T17:55:36.141Z,100554.06
2018-10-07T17:57:42.417Z,100558.83
2018-10-07T17:59:48.635Z,100570.24
2018-10-07T18:01:54.823Z,100571.97
2018-10-07T18:04:01.114Z,100582.99
2018-10-07T18:06:08.295Z,100587.13
2018-10-07T18:08:14.564Z,100586.37
2018-10-07T18:10:20.852Z,100585.19
2018-10-07T18:12:27.039Z,100596.02
2018-10-07T18:14:33.282Z,100598.33
2018-10-07T18:16:39.625Z,100600.05
2018-10-07T18:18:45.911Z,100604.33
2018-10-07T18:20:52.329Z,100615.78
2018-10-07T18:22:58.567Z,100611.77
2018-10-07T18:25:04.746Z,100624.94
2018-10-07T18:27:11.132Z,100625.62
2018-10-07T18:29:17.425Z,100637.36
2018-10-07T18:31:23.693Z,100640.39
2018-10-07T18:33:30.303Z,100643.88
2018-10-07T18:35:36.512Z,100637.08
2018-10-07T18:37:42.723Z,100642.28
2018-10-07T18:39:48.923Z,100652.22
2018-10-07T18:41:55.081Z,100651.65
2018-10-07T18:44:01.301Z,100661.39
2018-10-07T18:46:07.572Z,100659.59
2018-10-07T18:48:13.800Z,100663.92
2018-10-07T18:50:20.088Z,100666.69
2018-10-07T18:52:26.345Z,100669.12
2018-10-07T18:54:32.780Z,100665.64
2018-10-07T18:56:38.978Z,100667.91
2018-10-07T18:58:45.325Z,100666.11
2018-10-07T19:00:51.678Z,100666.20
2018-10-07T19:02:58.065Z,100669.78
2018-10-07T19:05:04.335Z,100671.58
2018-10-07T19:07:11.610Z,100675.16
2018-10-07T19:09:18.005Z,100693.35
2018-10-07T19:11:24.584Z,100686.03
2018-10-07T19:13:30.815Z,100679.12
2018-10-07T19:15:37.054Z,100681.27
2018-10-07T19:17:43.363Z,100682.70
2018-10-07T19:19:49.700Z,100692.44
2018-10-07T19:21:56.786Z,100694.70
2018-10-07T19:24:03.221Z,100699.14
2018-10-07T19:26:10.275Z,100694.89
2018-10-07T19:28:16.604Z,100698.25
2018-10-07T19:30:22.948Z,100704.28
2018-10-07T19:32:29.395Z,100711.98
2018-10-07T19:34:35.691Z,100709.81
2018-10-07T19:36:42.140Z,100713.97
2018-10-07T19:38:48.375Z,100723.23
2018-10-07T19:40:54.860Z,100723.70
2018-10-07T19:43:01.279Z,100724.17
2018-10-07T19:45:07.761Z,100722.38
2018-10-07T19:47:14.108Z,100718.13
2018-10-07T19:49:20.556Z,100726.15
2018-10-07T19:51:26.826Z,100729.80
2018-10-07T19:53:33.095Z,100725.25
2018-10-07T19:55:39.350Z,100731.47
2018-10-07T19:57:45.632Z,100734.03
2018-10-07T19:59:52.010Z,100742.51
2018-10-07T20:01:58.408Z,100743.36
2018-10-07T20:04:05.060Z,100740.72
2018-10-07T20:06:11.371Z,100745.63
2018-10-07T20:08:17.895Z,100753.56
2018-10-07T20:10:24.139Z,100751.25
2018-10-07T20:12:30.978Z,100755.55
2018-10-07T20:14:37.800Z,100759.31
2018-10-07T20:16:44.421Z,100755.92
2018-10-07T20:18:50.745Z,100756.38
2018-10-07T20:20:57.068Z,100759.39
2018-10-07T20:23:03.630Z,100752.70
2018-10-07T20:25:10.076Z,100757.13
2018-10-07T20:27:16.379Z,100753.73
2018-10-07T20:29:22.890Z,100752.42
2018-10-07T20:31:28.441Z,100762.68
2018-10-07T20:33:34.988Z,100758.43
2018-10-07T20:35:41.309Z,100759.51
2018-10-07T20:37:47.744Z,100766.69
2018-10-07T20:39:53.960Z,100766.77
2018-10-07T20:42:00.268Z,100759.16
2018-10-07T20:44:06.708Z,100771.99
2018-10-07T20:46:13.000Z,100773.31
2018-10-07T20:48:19.126Z,100773.78
2018-10-07T20:50:25.590Z,100768.20
2018-10-07T20:52:31.740Z,100771.24
2018-10-07T20:54:38.059Z,100776.67
2018-10-07T20:56:44.280Z,100778.10
2018-10-07T20:58:50.477Z,100766.28
2018-10-07T21:00:56.709Z,100770.78
2018-10-07T21:03:03.020Z,100773.60
2018-10-07T21:05:09.296Z,100773.39
2018-10-07T21:07:15.552Z,100771.17
2018-10-07T21:09:21.803Z,100779.20
2018-10-07T21:11:28.024Z,100769.30
2018-10-07T21:13:34.173Z,100773.71
2018-10-07T21:15:40.438Z,100772.87
2018-10-07T21:17:46.613Z,100775.42
2018-10-07T21:19:52.781Z,100774.91
2018-10-07T21:21:58.936Z,100781.81
2018-10-07T21:24:05.140Z,100783.04
2018-10-07T21:26:11.266Z,100784.82
2018-10-07T21:28:17.458Z,100786.70
2018-10-07T21:30:24.310Z,100783.84
2018-10-07T21:32:30.551Z,100783.67
2018-10-07T21:34:36.700Z,100780.80
2018-10-07T21:36:42.855Z,100773.34
2018-10-07T21:38:48.955Z,100771.33
2018-10-07T21:40:55.146Z,100775.13
2018-10-07T21:43:01.339Z,100772.95
2018-10-07T21:45:07.679Z,100778.55
2018-10-07T21:47:13.981Z,100781.56
2018-10-07T21:49:20.168Z,100779.87
2018-10-07T21:51:26.374Z,100783.34
2018-10-07T21:53:32.666Z,100783.67
2018-10-07T21:55:38.945Z,100783.50
2018-10-07T21:57:45.153Z,100773.41
2018-10-07T21:59:51.365Z,100776.73
2018-10-07T22:01:57.782Z,100778.45
2018-10-07T22:04:03.993Z,100782.25
2018-10-07T22:06:11.000Z,100780.70
2018-10-07T22:08:17.184Z,100779.61
2018-10-07T22:10:23.360Z,100783.67
2018-10-07T22:12:29.675Z,100789.97
2018-10-07T22:14:35.851Z,100790.25
2018-10-07T22:16:41.988Z,100788.60
2018-10-07T22:18:48.187Z,100783.78
2018-10-07T22:20:54.389Z,100775.11
2018-10-07T22:23:00.623Z,100773.33
2018-10-07T22:25:06.856Z,100767.48
2018-10-07T22:27:12.971Z,100768.58
2018-10-07T22:29:19.038Z,100765.38
2018-10-07T22:31:25.201Z,100768.80
2018-10-07T22:33:31.344Z,100765.19
2018-10-07T22:35:38.488Z,100768.17
2018-10-07T22:37:44.597Z,100769.16
2018-10-07T22:39:50.716Z,100772.20
2018-10-07T22:41:56.833Z,100781.92
2018-10-07T22:44:03.023Z,100780.91
2018-10-07T22:46:09.480Z,100778.55
2018-10-07T22:48:15.605Z,100781.18
2018-10-07T22:50:21.772Z,100775.05
2018-10-07T22:52:27.909Z,100774.19
2018-10-07T22:54:34.013Z,100772.17
2018-10-07T22:56:40.702Z,100776.80
2018-10-07T22:58:46.860Z,100785.42
2018-10-07T23:00:52.941Z,100780.33
2018-10-07T23:02:59.091Z,100781.24
2018-10-07T23:05:06.210Z,100780.13
2018-10-07T23:07:12.360Z,100784.60
2018-10-07T23:09:18.521Z,100781.11
2018-10-07T23:11:25.522Z,100777.95
2018-10-07T23:13:31.756Z,100776.58
2018-10-07T23:15:37.967Z,100780.84
2018-10-07T23:17:44.089Z,100781.70
2018-10-07T23:19:50.236Z,100789.61
2018-10-07T23:21:56.333Z,100782.16
2018-10-07T23:24:02.421Z,100782.22
2018-10-07T23:26:08.520Z,100786.57
2018-10-07T23:28:14.694Z,100786.91
2018-10-07T23:30:20.936Z,100794.64
2018-10-07T23:32:27.112Z,100792.31
2018-10-07T23:34:33.237Z,100790.79
2018-10-07T23:36:39.407Z,100785.41
2018-10-07T23:38:45.541Z,100789.66
2018-10-07T23:40:53.203Z,100791.78
2018-10-07T23:42:59.325Z,100792.24
2018-10-07T23:45:05.863Z,100796.66
2018-10-07T23:47:12.014Z,100798.83
2018-10-07T23:49:18.153Z,100804.04
2018-10-07T23:51:24.210Z,100793.90
2018-10-07T23:53:30.325Z,100796.08
2018-10-07T23:55:36.484Z,100791.62
2018-10-07T23:57:42.576Z,100792.13
2018-10-07T23:59:48.833Z,100788.75
